Latest Coastal Weather Observations for Dum In Mirrie

IDD60701

Issued at 3:41 pm CST Friday 24 March 2017 (issued every 10 minutes, with the page automatically refreshed every 10 minutes)

About coastal observations | Map of coastal stations | Coastal observations for NT | Marine services | Other Formats
Station Details ID: 014277 Name: DUM IN MIRRIE AIRSTRIP Lat: -12.63 Lon: 130.37 Height: 3.5 m
Data from the previous 72 hours. | See also: Recent months at Dum In Mirrie
Date/Time
CST
Temp
°C
Wind Pressure Rain since
9am
mm
Weather Cloud Vis
km
Sea
Height
m
Swell
Dir  Spd
kts
Gust
kts
hPa Trend Height
m
Period
s
Dir
24/03:30pm 31.1 WSW 5 9 1005.0 - 1.0 - - - - - - -
24/03:00pm 30.3 WSW 4 5 1005.7 - 1.0 Recent precip. - - - - - -
24/02:30pm 29.1 WSW 4 7 1005.7 - 0.8 - - - - - - -
24/02:00pm 31.0 W 5 6 1006.0 - 0.0 - - - - - - -
24/01:30pm 30.3 W 4 6 1006.5 - 0.0 - - - - - - -
24/01:00pm 30.1 W 4 6 1007.2 - 0.0 - - - - - - -
24/12:30pm 29.6 W 4 6 1007.8 - 0.0 - - - - - - -
24/12:00pm 30.4 NW 4 6 1008.4 - 0.0 - - - - - - -
24/11:30am 30.8 SW 2 3 1008.7 - 0.0 - - - - - - -
24/11:00am 30.2 SSW 3 5 1009.0 - 0.0 - - - - - - -
24/10:30am 29.5 SW 3 5 1009.3 - 0.0 - - - - - - -
24/10:00am 29.6 S 1 3 1009.5 - 0.0 - - - - - - -
24/09:30am 28.4 S 2 5 1009.4 - 0.0 - - - - - - -
24/09:00am 27.5 SE 3 5 1009.2 - 10.2 - - - - - - -
24/08:30am 26.8 CALM 0 2 1009.2 - 10.2 - - - - - - -
24/08:00am 25.6 CALM 0 2 1008.7 - 10.2 - - - - - - -
24/07:30am 25.2 CALM 0 1 1008.3 - 10.2 - - - - - - -
24/07:00am 24.9 CALM 0 1 1008.0 - 10.2 - - - - - - -
24/06:30am 25.0 CALM 0 0 1007.7 - 10.2 - - - - - - -
24/06:00am 25.3 CALM 0 3 1007.5 - 10.2 - - - - - - -
24/05:30am 25.4 ESE 3 8 1007.3 - 10.2 - - - - - - -
24/05:00am 25.5 SE 2 4 1007.5 - 10.2 - - - - - - -
24/04:30am 25.6 ESE 2 4 1007.0 - 10.2 - - - - - - -
24/04:00am 25.6 E 4 6 1007.1 - 10.2 - - - - - - -
24/03:30am 25.7 E 3 5 1007.7 - 10.2 - - - - - - -
24/03:00am 25.6 E 4 7 1007.6 - 10.2 - - - - - - -
24/02:30am 24.8 ESE 3 5 1007.6 - 10.2 - - - - - - -
24/02:00am 24.7 CALM 0 0 1008.1 - 10.2 - - - - - - -
24/01:30am 24.9 CALM 0 0 1008.2 - 10.2 - - - - - - -
24/01:00am 25.0 CALM 0 0 1008.2 - 10.0 - - - - - - -
24/12:30am 25.3 CALM 0 0 1008.0 - 9.8 - - - - - - -
24/12:00am 25.2 SSW 2 4 1008.7 - 9.8 - - - - - - -
 
Date/Time
CST
Temp
°C
Wind Pressure Rain since
9am
mm
Weather Cloud Vis
km
Sea
Height
m
Swell
Dir  Spd
kts
Gust
kts
hPa Trend Height
m
Period
s
Dir
23/11:30pm 25.3 SSE 3 6 1009.1 - 9.8 - - - - - - -
23/11:00pm 25.2 SE 3 5 1010.0 - 9.8 - - - - - - -
23/10:30pm 25.5 CALM 0 0 1010.2 - 9.8 - - - - - - -
23/10:00pm 25.4 SSW 2 4 1009.4 - 9.8 - - - - - - -
23/09:30pm 25.4 S 5 11 1009.2 - 9.8 - - - - - - -
23/09:00pm 26.0 SE 6 13 1008.6 - 9.8 - - - - - - -
23/08:30pm 26.4 E 5 9 1008.7 - 9.8 - - - - - - -
23/08:00pm 26.9 CALM 0 0 1008.1 - 9.8 - - - - - - -
23/07:30pm 27.0 CALM 0 0 1007.4 - 9.8 - - - - - - -
23/07:00pm 27.0 CALM 0 0 1006.8 - 9.8 - - - - - - -
23/06:30pm 26.7 S 1 3 1006.7 - 9.8 - - - - - - -
23/06:00pm 26.4 S 1 3 1006.5 - 9.8 Recent precip. - - - - - -
23/05:30pm 26.0 S 5 10 1006.4 - 7.6 - - - - - - -
23/05:00pm 28.7 SW 4 10 1006.5 - 0.6 - - - - - - -
23/04:30pm 29.1 WSW 5 11 1006.4 - 0.2 - - - - - - -
23/04:00pm 30.7 WSW 5 11 1006.4 - 0.2 - - - - - - -
23/03:30pm 29.7 WSW 8 13 1006.8 - 0.2 - - - - - - -
23/03:00pm 29.3 WSW 10 16 1007.0 - 0.2 - - - - - - -
23/02:30pm 29.9 W 6 9 1007.3 - 0.2 - - - - - - -
23/02:00pm 29.1 WSW 6 10 1007.7 - 0.2 - - - - - - -
23/01:30pm 29.1 W 4 7 1008.1 - 0.2 - - - - - - -
23/01:00pm 29.1 WSW 4 5 1008.3 - 0.2 - - - - - - -
23/12:30pm 29.1 NNW 4 7 1009.1 - 0.2 - - - - - - -
23/12:00pm 28.6 N 3 5 1009.9 - 0.2 Recent precip. - - - - - -
23/11:30am 27.5 NNE 4 6 1010.2 - 0.0 - - - - - - -
23/11:00am 26.5 NNE 6 10 1010.1 - 0.0 - - - - - - -
23/10:30am 27.5 ENE 6 11 1010.3 - 0.0 - - - - - - -
23/10:00am 28.8 SE 1 4 1010.3 - 0.0 - - - - - - -
23/09:30am 29.4 SE 1 3 1010.3 - 0.0 - - - - - - -
23/09:00am 28.3 SE 3 5 1009.8 - 8.8 - - - - - - -
23/08:30am 26.6 ESE 3 4 1009.2 - 8.8 - - - - - - -
23/08:00am 26.0 ESE 2 3 1009.3 - 8.8 - - - - - - -
23/07:30am 25.6 CALM 0 0 1008.9 - 8.8 - - - - - - -
23/07:00am 25.4 SE 1 2 1008.3 - 8.8 - - - - - - -
23/06:30am 25.4 ESE 1 2 1008.5 - 8.8 - - - - - - -
23/06:00am 25.6 SE 1 3 1008.0 - 8.8 - - - - - - -
23/05:30am 25.9 CALM 0 0 1007.7 - 8.8 - - - - - - -
23/05:00am 25.8 ESE 1 2 1007.7 - 8.8 - - - - - - -
23/04:30am 25.7 ENE 1 2 1007.5 - 8.8 - - - - - - -
23/04:00am 25.8 ESE 1 3 1007.3 - 8.8 - - - - - - -
23/03:30am 25.7 CALM 0 2 1007.5 - 8.8 - - - - - - -
23/03:00am 25.8 CALM 0 1 1008.1 - 8.8 - - - - - - -
23/02:30am 25.6 ESE 1 2 1008.0 - 8.8 - - - - - - -
23/02:00am 25.8 CALM 0 1 1007.9 - 8.8 - - - - - - -
23/01:30am 25.6 CALM 0 0 1008.4 - 8.8 - - - - - - -
23/01:00am 25.7 CALM 0 0 1008.9 - 8.8 - - - - - - -
23/12:30am 25.9 CALM 0 0 1009.4 - 8.8 - - - - - - -
23/12:00am 26.0 CALM 0 0 1009.3 - 8.8 - - - - - - -
 
Date/Time
CST
Temp
°C
Wind Pressure Rain since
9am
mm
Weather Cloud Vis
km
Sea
Height
m
Swell
Dir  Spd
kts
Gust
kts
hPa Trend Height
m
Period
s
Dir
22/11:30pm 26.2 CALM 0 0 1009.5 - 8.8 - - - - - - -
22/11:00pm 26.3 CALM 0 0 1009.7 - 8.8 - - - - - - -
22/10:30pm 26.5 SSE 1 2 1009.9 - 8.8 - - - - - - -
22/10:00pm 26.3 SSE 1 3 1010.0 - 8.8 - - - - - - -
22/09:30pm 26.4 CALM 0 0 1009.3 - 8.8 - - - - - - -
22/09:00pm 26.4 CALM 0 0 1008.5 - 8.8 - - - - - - -
22/08:30pm 26.8 CALM 0 1 1008.2 - 8.8 - - - - - - -
22/08:00pm 26.8 CALM 0 2 1008.0 - 8.8 - - - - - - -
22/07:30pm 27.1 SSE 1 2 1008.0 - 8.8 - - - - - - -
22/07:00pm 27.3 CALM 0 0 1007.5 - 8.8 - - - - - - -
22/06:30pm 27.6 CALM 0 3 1007.0 - 8.8 - - - - - - -
22/06:00pm 27.8 SSW 2 5 1007.0 - 8.8 - - - - - - -
22/05:30pm 28.0 SSW 1 3 1006.8 - 8.8 - - - - - - -
22/05:00pm 28.0 SW 3 5 1006.6 - 8.8 - - - - - - -
22/04:30pm 28.9 SW 3 5 1006.4 - 8.8 - - - - - - -
22/04:00pm 29.4 WSW 5 8 1006.2 - 8.8 - - - - - - -
22/03:30pm 28.6 WNW 3 5 1006.8 - 8.8 - - - - - - -
22/03:00pm 27.5 W 4 7 1007.1 - 8.8 Recent precip. - - - - - -
22/02:30pm 27.1 WNW 4 8 1007.6 - 8.8 - - - - - - -
22/02:00pm 26.6 WNW 3 7 1007.9 - 8.6 - - - - - - -
22/01:30pm 26.7 NW 2 4 1008.3 - 8.0 - - - - - - -
22/01:00pm 26.5 WNW 3 6 1009.0 - 7.4 - - - - - - -
22/12:30pm 26.1 WNW 4 7 1009.2 - 7.4 - - - - - - -
22/12:00pm 25.3 WNW 3 6 1009.6 - 7.4 Rain - - - - - -
22/11:30am 26.2 NNW 5 11 1010.0 - 2.0 - - - - - - -
22/11:00am 28.0 NNE 4 11 1009.8 - 0.0 - - - - - - -
22/10:30am 29.8 E 1 2 1010.0 - 0.0 - - - - - - -
22/10:00am 28.9 ESE 3 5 1009.9 - 0.0 - - - - - - -
22/09:30am 28.4 SE 3 5 1009.5 - 0.0 - - - - - - -
22/09:00am 27.9 SE 2 5 1009.4 - 24.2 - - - - - - -
22/08:30am 28.0 SSE 3 6 1009.1 - 24.2 - - - - - - -
22/08:00am 27.3 SE 2 6 1008.7 - 24.2 - - - - - - -
22/07:30am 28.0 SSW 3 5 1008.4 - 24.2 - - - - - - -
22/07:00am 28.2 WSW 5 11 1008.1 - 24.2 - - - - - - -
22/06:30am 28.0 WSW 4 9 1008.2 - 24.2 - - - - - - -
22/06:00am 27.9 WSW 3 9 1007.9 - 24.2 - - - - - - -
22/05:30am 27.8 WSW 5 11 1007.7 - 24.2 - - - - - - -
22/05:00am 27.5 WSW 7 12 1007.4 - 24.2 - - - - - - -
22/04:30am 26.9 W 3 7 1007.0 - 24.2 - - - - - - -
22/04:00am 27.0 W 2 5 1006.9 - 24.2 - - - - - - -
22/03:30am 27.0 W 4 9 1007.3 - 24.2 - - - - - - -
22/03:00am 26.6 W 5 9 1007.8 - 24.2 Recent precip. - - - - - -
22/02:30am 26.3 WNW 4 6 1008.3 - 24.2 - - - - - - -
22/02:00am 26.1 N 1 5 1008.6 - 24.0 - - - - - - -
22/01:30am 25.9 CALM 0 0 1009.1 - 24.0 - - - - - - -
22/01:00am 25.9 CALM 0 0 1009.0 - 24.0 - - - - - - -
22/12:30am 25.8 CALM 0 1 1009.2 - 24.0 - - - - - - -
22/12:00am 25.9 E 1 2 1009.3 - 24.0 - - - - - - -
 
Date/Time
CST
Temp
°C
Wind Pressure Rain since
9am
mm
Weather Cloud Vis
km
Sea
Height
m
Swell
Dir  Spd
kts
Gust
kts
hPa Trend Height
m
Period
s
Dir
21/11:30pm 26.1 CALM 0 2 1009.4 - 24.0 - - - - - - -
21/11:00pm 25.9 NNE 2 4 1009.8 - 24.0 - - - - - - -
21/10:30pm 25.9 CALM 0 0 1009.9 - 23.8 - - - - - - -
21/10:00pm 25.8 CALM 0 0 1009.3 - 23.8 - - - - - - -
21/09:30pm 25.7 S 1 2 1009.2 - 23.8 - - - - - - -
21/09:00pm 25.7 S 2 4 1008.4 - 23.8 Recent precip. - - - - - -
21/08:30pm 25.9 SSW 5 10 1008.1 - 23.6 - - - - - - -
21/08:00pm 25.1 S 2 5 1008.1 - 21.8 - - - - - - -
21/07:30pm 24.9 SW 6 10 1007.4 - 21.4 - - - - - - -
21/07:00pm 24.8 S 4 8 1007.1 - 20.2 - - - - - - -
21/06:30pm 25.4 SE 6 14 1006.8 - 5.4 - - - - - - -
21/06:00pm 26.3 SE 4 8 1006.2 - 0.6 Recent precip. - - - - - -
21/05:30pm 28.8 SSW 6 10 1005.9 - 0.2 - - - - - - -
21/05:00pm 30.6 SW 3 8 1005.5 - 0.2 - - - - - - -
21/04:30pm 30.8 WSW 6 11 1005.1 - 0.2 - - - - - - -
21/04:00pm 30.5 WSW 7 11 1005.2 - 0.2 - - - - - - -

Other Formats:

Comma delimited format used in spreadsheet applications
http://www.bom.gov.au/fwo/IDD60701/IDD60701.94116.axf

JavaScript Object Notation format (JSON) in row-major order
http://www.bom.gov.au/fwo/IDD60701/IDD60701.94116.json